Terminal Aerodrome Forecast
Issued by NWS Lake Charles, LA

Home | Current Version | Previous Version | Text Only | Print | Product List | Glossary On
Versions: 1 2 3 4 5 6 7 8 9 10 11 12 13 14 15 16 17 18 19
000
FTUS44 KLCH 281542 AAA
TAFBPT
TAF AMD
KBPT 281542Z 2816/2912 07010KT P6SM VCTS FEW015CB SCT030 BKN050
      TEMPO 2816/2818 2SM -RA BR OVC006
     FM290000 07008KT P6SM FEW050 SCT100=

USA.gov is the U.S. government's official web portal to all federal, state and local government web resources and services.